sensor_id;sensor_type;location;lat;lon;timestamp;temperature;humidity
10143;DHT22;5112;54.088;13.446;2023-09-19T00:08:54;19.30;99.90
10143;DHT22;5112;54.088;13.446;2023-09-19T00:18:57;19.30;99.90
10143;DHT22;5112;54.088;13.446;2023-09-19T00:29:00;19.20;99.90
10143;DHT22;5112;54.088;13.446;2023-09-19T00:39:08;19.00;99.90
10143;DHT22;5112;54.088;13.446;2023-09-19T00:49:10;19.00;99.90
10143;DHT22;5112;54.088;13.446;2023-09-19T00:59:14;18.90;99.90
10143;DHT22;5112;54.088;13.446;2023-09-19T01:09:17;18.80;99.90
10143;DHT22;5112;54.088;13.446;2023-09-19T01:30:08;18.60;99.90
10143;DHT22;5112;54.088;13.446;2023-09-19T01:40:13;18.50;99.90
10143;DHT22;5112;54.088;13.446;2023-09-19T01:50:27;18.40;99.90
10143;DHT22;5112;54.088;13.446;2023-09-19T02:00:32;18.20;99.90
10143;DHT22;5112;54.088;13.446;2023-09-19T02:10:36;18.30;99.90
10143;DHT22;5112;54.088;13.446;2023-09-19T02:20:38;18.20;99.90
10143;DHT22;5112;54.088;13.446;2023-09-19T02:30:41;18.20;99.90
10143;DHT22;5112;54.088;13.446;2023-09-19T02:40:43;18.20;99.90
10143;DHT22;5112;54.088;13.446;2023-09-19T02:50:45;18.30;99.90
10143;DHT22;5112;54.088;13.446;2023-09-19T03:00:47;18.30;99.90
10143;DHT22;5112;54.088;13.446;2023-09-19T03:10:51;18.30;99.90
10143;DHT22;5112;54.088;13.446;2023-09-19T03:20:53;18.30;99.90
10143;DHT22;5112;54.088;13.446;2023-09-19T03:31:00;18.20;99.90
10143;DHT22;5112;54.088;13.446;2023-09-19T03:41:02;17.90;99.90
10143;DHT22;5112;54.088;13.446;2023-09-19T03:51:05;17.80;99.90
10143;DHT22;5112;54.088;13.446;2023-09-19T04:01:07;17.70;99.90
10143;DHT22;5112;54.088;13.446;2023-09-19T04:11:10;17.50;99.90
10143;DHT22;5112;54.088;13.446;2023-09-19T04:21:12;17.40;99.90
10143;DHT22;5112;54.088;13.446;2023-09-19T04:31:15;17.30;99.90
10143;DHT22;5112;54.088;13.446;2023-09-19T04:41:17;17.20;99.90
10143;DHT22;5112;54.088;13.446;2023-09-19T04:51:20;17.10;99.90
10143;DHT22;5112;54.088;13.446;2023-09-19T05:01:22;17.00;99.90
10143;DHT22;5112;54.088;13.446;2023-09-19T05:11:25;16.90;99.90
10143;DHT22;5112;54.088;13.446;2023-09-19T05:21:27;16.80;99.90
10143;DHT22;5112;54.088;13.446;2023-09-19T05:31:31;16.70;99.90
10143;DHT22;5112;54.088;13.446;2023-09-19T05:41:33;16.70;99.90
10143;DHT22;5112;54.088;13.446;2023-09-19T05:51:38;16.60;99.90
10143;DHT22;5112;54.088;13.446;2023-09-19T06:01:39;16.80;99.90
10143;DHT22;5112;54.088;13.446;2023-09-19T06:11:42;17.00;99.90
10143;DHT22;5112;54.088;13.446;2023-09-19T06:21:44;17.20;99.90
10143;DHT22;5112;54.088;13.446;2023-09-19T06:31:48;17.40;99.90
10143;DHT22;5112;54.088;13.446;2023-09-19T06:41:49;17.60;99.90
10143;DHT22;5112;54.088;13.446;2023-09-19T06:51:55;17.60;99.90
10143;DHT22;5112;54.088;13.446;2023-09-19T07:01:57;17.40;99.90
10143;DHT22;5112;54.088;13.446;2023-09-19T07:12:01;17.40;99.90
10143;DHT22;5112;54.088;13.446;2023-09-19T07:22:02;17.60;99.90
10143;DHT22;5112;54.088;13.446;2023-09-19T07:32:06;18.10;99.90
10143;DHT22;5112;54.088;13.446;2023-09-19T07:42:08;18.70;99.90
10143;DHT22;5112;54.088;13.446;2023-09-19T07:52:13;18.90;99.90
10143;DHT22;5112;54.088;13.446;2023-09-19T08:02:16;19.00;99.90
10143;DHT22;5112;54.088;13.446;2023-09-19T08:12:20;19.00;99.90
10143;DHT22;5112;54.088;13.446;2023-09-19T08:22:25;19.00;99.90
10143;DHT22;5112;54.088;13.446;2023-09-19T08:32:29;19.20;99.90
10143;DHT22;5112;54.088;13.446;2023-09-19T08:42:31;19.30;99.90
10143;DHT22;5112;54.088;13.446;2023-09-19T08:52:41;19.20;99.90
10143;DHT22;5112;54.088;13.446;2023-09-19T09:02:43;19.50;99.90
10143;DHT22;5112;54.088;13.446;2023-09-19T09:12:48;20.00;99.90
10143;DHT22;5112;54.088;13.446;2023-09-19T09:22:51;19.90;99.90
10143;DHT22;5112;54.088;13.446;2023-09-19T09:33:07;20.20;99.90
10143;DHT22;5112;54.088;13.446;2023-09-19T09:43:25;20.10;99.90
10143;DHT22;5112;54.088;13.446;2023-09-19T09:53:30;20.60;99.90
10143;DHT22;5112;54.088;13.446;2023-09-19T10:03:34;20.80;99.90
10143;DHT22;5112;54.088;13.446;2023-09-19T10:13:42;20.60;99.90
10143;DHT22;5112;54.088;13.446;2023-09-19T10:23:44;20.40;99.90
10143;DHT22;5112;54.088;13.446;2023-09-19T10:33:49;20.70;99.90
10143;DHT22;5112;54.088;13.446;2023-09-19T10:43:53;20.20;99.90
10143;DHT22;5112;54.088;13.446;2023-09-19T10:54:02;19.70;99.90
10143;DHT22;5112;54.088;13.446;2023-09-19T11:04:21;19.70;99.90
10143;DHT22;5112;54.088;13.446;2023-09-19T11:14:41;19.80;99.90
10143;DHT22;5112;54.088;13.446;2023-09-19T11:24:45;19.80;99.90
10143;DHT22;5112;54.088;13.446;2023-09-19T11:34:48;19.70;99.90
10143;DHT22;5112;54.088;13.446;2023-09-19T11:44:51;19.60;99.90
10143;DHT22;5112;54.088;13.446;2023-09-19T11:54:57;19.60;99.90
10143;DHT22;5112;54.088;13.446;2023-09-19T12:05:02;19.60;99.90
10143;DHT22;5112;54.088;13.446;2023-09-19T12:15:07;20.00;99.90
10143;DHT22;5112;54.088;13.446;2023-09-19T12:25:09;20.00;99.90
10143;DHT22;5112;54.088;13.446;2023-09-19T12:35:26;20.10;99.90
10143;DHT22;5112;54.088;13.446;2023-09-19T12:45:29;20.30;99.90
10143;DHT22;5112;54.088;13.446;2023-09-19T12:55:33;20.20;99.90
10143;DHT22;5112;54.088;13.446;2023-09-19T13:05:55;20.20;99.90
10143;DHT22;5112;54.088;13.446;2023-09-19T13:16:01;20.10;99.90
10143;DHT22;5112;54.088;13.446;2023-09-19T13:26:03;20.20;99.90
10143;DHT22;5112;54.088;13.446;2023-09-19T13:36:07;20.10;99.90
10143;DHT22;5112;54.088;13.446;2023-09-19T13:46:09;19.80;99.90
10143;DHT22;5112;54.088;13.446;2023-09-19T13:56:17;19.80;99.90
10143;DHT22;5112;54.088;13.446;2023-09-19T14:06:19;19.80;99.90
10143;DHT22;5112;54.088;13.446;2023-09-19T14:16:22;19.70;99.90
10143;DHT22;5112;54.088;13.446;2023-09-19T14:26:25;19.70;99.90
10143;DHT22;5112;54.088;13.446;2023-09-19T14:36:28;19.70;99.90
10143;DHT22;5112;54.088;13.446;2023-09-19T14:46:30;19.60;99.90
10143;DHT22;5112;54.088;13.446;2023-09-19T14:56:33;19.60;99.90
10143;DHT22;5112;54.088;13.446;2023-09-19T15:06:34;19.70;99.90
10143;DHT22;5112;54.088;13.446;2023-09-19T15:16:37;19.60;99.90
10143;DHT22;5112;54.088;13.446;2023-09-19T15:26:40;19.50;99.90
10143;DHT22;5112;54.088;13.446;2023-09-19T15:36:45;19.40;99.90
10143;DHT22;5112;54.088;13.446;2023-09-19T15:46:47;19.40;99.90
10143;DHT22;5112;54.088;13.446;2023-09-19T15:56:50;19.40;99.90
10143;DHT22;5112;54.088;13.446;2023-09-19T16:06:52;19.20;99.90
10143;DHT22;5112;54.088;13.446;2023-09-19T16:16:54;19.00;99.90
10143;DHT22;5112;54.088;13.446;2023-09-19T16:26:57;18.80;99.90
10143;DHT22;5112;54.088;13.446;2023-09-19T16:37:01;18.50;99.90
10143;DHT22;5112;54.088;13.446;2023-09-19T16:47:03;18.40;99.90
10143;DHT22;5112;54.088;13.446;2023-09-19T16:57:06;18.40;99.90
10143;DHT22;5112;54.088;13.446;2023-09-19T17:07:08;18.20;99.90
10143;DHT22;5112;54.088;13.446;2023-09-19T17:17:11;18.10;99.90
10143;DHT22;5112;54.088;13.446;2023-09-19T17:27:13;18.00;99.90
10143;DHT22;5112;54.088;13.446;2023-09-19T17:37:16;17.80;99.90
10143;DHT22;5112;54.088;13.446;2023-09-19T17:47:19;17.80;99.90
10143;DHT22;5112;54.088;13.446;2023-09-19T17:57:24;17.70;99.90
10143;DHT22;5112;54.088;13.446;2023-09-19T18:07:26;17.60;99.90
10143;DHT22;5112;54.088;13.446;2023-09-19T18:17:29;17.60;99.90
10143;DHT22;5112;54.088;13.446;2023-09-19T18:27:30;17.70;99.90
10143;DHT22;5112;54.088;13.446;2023-09-19T18:37:34;17.80;99.90
10143;DHT22;5112;54.088;13.446;2023-09-19T18:47:36;17.80;99.90
10143;DHT22;5112;54.088;13.446;2023-09-19T18:57:40;17.80;99.90
10143;DHT22;5112;54.088;13.446;2023-09-19T19:07:42;17.80;99.90
10143;DHT22;5112;54.088;13.446;2023-09-19T19:17:44;17.70;99.90
10143;DHT22;5112;54.088;13.446;2023-09-19T19:27:46;17.80;99.90
10143;DHT22;5112;54.088;13.446;2023-09-19T19:37:49;17.90;99.90
10143;DHT22;5112;54.088;13.446;2023-09-19T19:47:51;17.90;99.90
10143;DHT22;5112;54.088;13.446;2023-09-19T19:57:54;18.00;99.90
10143;DHT22;5112;54.088;13.446;2023-09-19T20:07:56;17.80;99.90
10143;DHT22;5112;54.088;13.446;2023-09-19T20:17:59;17.80;99.90
10143;DHT22;5112;54.088;13.446;2023-09-19T20:28:03;17.80;99.90
10143;DHT22;5112;54.088;13.446;2023-09-19T20:38:07;17.80;99.90
10143;DHT22;5112;54.088;13.446;2023-09-19T20:48:11;17.80;99.90
10143;DHT22;5112;54.088;13.446;2023-09-19T20:58:14;17.90;99.90
10143;DHT22;5112;54.088;13.446;2023-09-19T21:08:16;18.00;99.90
10143;DHT22;5112;54.088;13.446;2023-09-19T21:18:19;18.00;99.90
10143;DHT22;5112;54.088;13.446;2023-09-19T21:28:21;18.00;99.90
10143;DHT22;5112;54.088;13.446;2023-09-19T21:38:24;18.10;99.90
10143;DHT22;5112;54.088;13.446;2023-09-19T21:48:27;18.10;99.90
10143;DHT22;5112;54.088;13.446;2023-09-19T21:58:30;18.20;99.90
10143;DHT22;5112;54.088;13.446;2023-09-19T22:08:32;18.20;99.90
10143;DHT22;5112;54.088;13.446;2023-09-19T22:18:35;18.20;99.90
10143;DHT22;5112;54.088;13.446;2023-09-19T22:28:37;18.30;99.90
10143;DHT22;5112;54.088;13.446;2023-09-19T22:38:42;18.30;99.90
10143;DHT22;5112;54.088;13.446;2023-09-19T22:48:44;18.30;99.90
10143;DHT22;5112;54.088;13.446;2023-09-19T22:58:49;18.40;99.90
10143;DHT22;5112;54.088;13.446;2023-09-19T23:08:51;18.50;99.90
10143;DHT22;5112;54.088;13.446;2023-09-19T23:18:54;18.40;99.90
10143;DHT22;5112;54.088;13.446;2023-09-19T23:28:57;18.50;99.90
10143;DHT22;5112;54.088;13.446;2023-09-19T23:39:00;18.70;99.90
10143;DHT22;5112;54.088;13.446;2023-09-19T23:49:01;18.30;99.90
10143;DHT22;5112;54.088;13.446;2023-09-19T23:59:09;18.40;99.90
